• pl
  • eng

Awiacja
Komunikaty METAR z lotnisk wojskowych. 18:01 23.07.2019

METAR EPCE 231600Z 30007KT 7000 OVC004 18/17
Q1019 RMK 179 097 8/8=

METAR EPDA 231600Z 27009KT 230V300 9999 FEW007 SCT037 19/17
Q1019 RMK 194 086 4/2=

METAR EPDE 231600Z 31008KT CAVOK 22/12 Q1018 RMK 216 054 7/7=

METAR EPIR 231600Z 33006KT 9999 SCT022 BKN030 22/15 Q1019 RMK 219 065
7/3 =

METAR EPKS 231600Z 33007KT 290V350 9999 OVC020 23/16 Q1020 RMK 225
068 8/8=

METAR EPLK 231600Z 29007KT 260V330 9999 FEW025 OVC032 21/15 Q1020
RMK 207 070 8/2=

METAR EPLY 231600Z 29006KT 9999 BKN030 22/15 Q1019 RMK 215 067 7/7=

METAR EPMB 231600Z 29004KT 9999 FEW018 OVC025 20/17 Q1019 RMK 200
081 8/1=

METAR EPMI 231600Z 31007KT 9999 BKN038 22/18 Q1020 RMK 220 076 7/7=

METAR EPMM 231600Z 32010KT 280V340 9999 FEW033 FEW050 21/13 Q1018
RMK 212 058 2/1=

METAR EPNA 231600Z NIL=

METAR EPOK 231600Z 32006KT 5000 -DZ BR BKN004 OVC011 18/17
Q1019 RE DZ RMK 182 095 8/6=

METAR EPPR 231600Z 17002KT 6000 -DZ FEW003 BKN008 OVC018 19/17 Q1019
RMK 190 088 8/2=

METAR EPPW 231600Z 30008KT 9999 SCT018 OVC030 21/17 Q1020 RMK 213
075 8/4=

METAR EPRA 231600Z 34006KT 9999 BKN040 BKN100 22/13 Q1019 RMK 218 056
7/5=

METAR EPSN 231600Z 33006KT 300V010 9999 BKN025 22/17 Q1020 RMK 219
074 6/6=

METAR EPTM 231600Z 33004KT 9999 SCT030 BKN040 21/13 Q1019 RMK 214 057
7/3=
Awiacja.imgw.pl jest pogodowym serwisem informacyjnym
Instytutu Meteorologii i Gospodarki Wodnej Państwowego Instytutu Badawczego.
Copyright IMGW PIB 2009-2011© Wszelkie prawa zastrzeżone.